Monday, July 23, 2018, 7:31 AM EDT
Back to Local

KGTB, Fort Drum / Wheeler-sack U. S. Army Airfield

Location: Fort Drum, NY, United States Lat: 44.05
Local Time: 7:31 AM EDT (11:31 GMT) Lon: -75.733
Time Zone: US/Eastern Elev: 679 ft

Show me the last for .
Show Decoded

2018-07-23 06:56 METAR KGTB 231056Z AUTO 15016G22KT 10SM BKN080 24/23 A3002 RMK AO2 PK WND
                 14026/12 SLP161 T02390234 =
2018-07-23 05:56 METAR KGTB 230956Z AUTO 15014KT 10SM CLR 23/23 A3000 RMK AO2 SLP154 T02320232 =
2018-07-23 04:56 METAR KGTB 230856Z AUTO 14007KT 10SM CLR 23/23 A3000 RMK AO2 SLP155 T02270227
                 52007 =
2018-07-23 03:56 METAR KGTB 230756Z AUTO 14010KT 10SM FEW130 23/23 A2999 RMK AO2 SLP151 T02290229
                 =
2018-07-23 02:56 METAR KGTB 230656Z AUTO 15013G19KT 10SM CLR 23/23 A2998 RMK AO2 PK WND 15026/06
                 SLP148 T02300230 =
2018-07-23 01:56 METAR KGTB 230556Z AUTO 15013KT 10SM CLR 23/23 A2998 RMK AO2 SLP148 T02330233
                 10286 20232 55006 =
2018-07-23 00:56 METAR KGTB 230456Z AUTO 15011G17KT 10SM FEW240 24/23 A2998 RMK AO2 SLP148
                 T02350233 403140170 =
2018-07-22 23:56 METAR KGTB 230356Z AUTO 14012KT 10SM SCT110 24/22 A2998 RMK AO2 SLP148 T02430222
                 =
2018-07-22 22:56 METAR KGTB 230256Z AUTO 13009KT 10SM FEW110 FEW220 25/23 A2999 RMK AO2 SLP151
                 T02450225 52018 =
2018-07-22 21:56 METAR KGTB 230156Z AUTO 13007KT 10SM OVC120 25/21 A2999 RMK AO2 SLP152 T02540213
                 =
2018-07-22 20:56 METAR KGTB 230056Z AUTO 14007KT 10SM BKN120 27/20 A2996 RMK AO2 SLP142 T02650203
                 =
2018-07-22 19:56 METAR KGTB 222356Z AUTO 14011KT 10SM FEW050 BKN120 29/20 A2994 RMK AO2 SLP135
                 T02870199 10314 20279 52022 $ =
2018-07-22 18:56 METAR KGTB 222256Z AUTO 18013G22KT 10SM FEW055 BKN095 30/17 A2991 RMK AO2 SLP125
                 T03020173 $ =
2018-07-22 17:56 METAR KGTB 222156Z AUTO 16014KT 10SM CLR 30/18 A2989 RMK AO2 SLP118 T03040184 $
                 =
2018-07-22 17:06 METAR KGTB 222106Z AUTO 17014KT 10SM SCT060 30/20 A2988 RMK AO2 WSHFT 2055
                 SLP114 $ =
2018-07-22 16:56 METAR KGTB 222056Z AUTO 13014KT 10SM CLR 30/20 A2987 RMK AO2 SLP111 T02960199 $
                 =
2018-07-22 15:56 METAR KGTB 221956Z COR 16015G22KT 10SM CLR 29/20 A2987 RMK AO2 PK WND 16030/13
                 SLP111 T02850202 $ COR 2006 =
2018-07-22 14:56 METAR KGTB 221856Z AUTO 14018G29KT 10SM FEW041 29/20 A2986 RMK AO2 PK WND
                 14030/01 SLP108 T02860198 =
2018-07-22 13:56 METAR KGTB 221756Z AUTO 13020G28KT 10SM FEW150 FEW200 28/19 A2986 RMK AO2 PK WND
                 13035/03 SLP108 T02780193 10283 20180 52010 =
2018-07-22 12:56 METAR KGTB 221656Z AUTO 15020G26KT 10SM FEW035 28/19 A2984 RMK AO2 PK WND
                 14032/34 SLP101 T02800187 =
2018-07-22 11:56 METAR KGTB 221556Z AUTO 12015G25KT 10SM SCT035 27/18 A2984 RMK AO2 PK WND
                 13030/39 SLP101 T02680184 =
2018-07-22 10:56 METAR KGTB 221456Z AUTO 12017G27KT 10SM BKN036 27/19 A2983 RMK AO2 PK WND
                 12030/47 SLP097 T02670185 55009 =
2018-07-22 09:56 METAR KGTB 221356Z AUTO 11017G21KT 10SM SCT036 25/18 A2983 RMK AO2 PK WND
                 11028/21 SLP098 T02450184 =
2018-07-22 08:56 METAR KGTB 221256Z AUTO 09013KT 10SM CLR 21/19 A2983 RMK AO2 SLP098 T02140191 =
2018-07-22 07:56 METAR KGTB 221156Z AUTO 10009KT 10SM FEW012 FEW029 OVC110 18/18 A2986 RMK AO2
                 SLP109 60002 70002 T01790179 10196 20170 57012 =

Support USWX by starting your Amazon purchase here.